sensor_id;sensor_type;location;lat;lon;timestamp;temperature;humidity
40123;DHT22;25832;45.490;4.912;2023-11-19T00:02:21;7.30;99.90
40123;DHT22;25832;45.490;4.912;2023-11-19T00:04:47;7.30;99.90
40123;DHT22;25832;45.490;4.912;2023-11-19T00:07:13;7.20;99.90
40123;DHT22;25832;45.490;4.912;2023-11-19T00:09:39;7.20;99.90
40123;DHT22;25832;45.490;4.912;2023-11-19T00:12:06;7.20;99.90
40123;DHT22;25832;45.490;4.912;2023-11-19T00:14:32;7.30;99.90
40123;DHT22;25832;45.490;4.912;2023-11-19T00:16:57;7.30;99.90
40123;DHT22;25832;45.490;4.912;2023-11-19T00:19:23;7.20;99.90
40123;DHT22;25832;45.490;4.912;2023-11-19T00:21:48;7.10;99.90
40123;DHT22;25832;45.490;4.912;2023-11-19T00:24:14;7.10;99.90
40123;DHT22;25832;45.490;4.912;2023-11-19T00:26:43;7.00;99.90
40123;DHT22;25832;45.490;4.912;2023-11-19T00:29:09;7.00;99.90
40123;DHT22;25832;45.490;4.912;2023-11-19T00:31:35;7.00;99.90
40123;DHT22;25832;45.490;4.912;2023-11-19T00:34:01;7.00;99.90
40123;DHT22;25832;45.490;4.912;2023-11-19T00:36:27;6.90;99.90
40123;DHT22;25832;45.490;4.912;2023-11-19T00:38:53;6.90;99.90
40123;DHT22;25832;45.490;4.912;2023-11-19T00:41:19;6.90;99.90
40123;DHT22;25832;45.490;4.912;2023-11-19T00:43:45;6.90;99.90
40123;DHT22;25832;45.490;4.912;2023-11-19T00:46:10;6.80;99.90
40123;DHT22;25832;45.490;4.912;2023-11-19T00:48:37;6.80;99.90
40123;DHT22;25832;45.490;4.912;2023-11-19T00:51:03;6.70;99.90
40123;DHT22;25832;45.490;4.912;2023-11-19T00:53:30;6.60;99.90
40123;DHT22;25832;45.490;4.912;2023-11-19T00:55:55;6.60;99.90
40123;DHT22;25832;45.490;4.912;2023-11-19T00:58:21;6.60;99.90
40123;DHT22;25832;45.490;4.912;2023-11-19T01:00:47;6.70;99.90
40123;DHT22;25832;45.490;4.912;2023-11-19T01:03:13;6.70;99.90
40123;DHT22;25832;45.490;4.912;2023-11-19T01:05:40;6.70;99.90
40123;DHT22;25832;45.490;4.912;2023-11-19T01:08:06;6.70;99.90
40123;DHT22;25832;45.490;4.912;2023-11-19T01:10:32;6.60;99.90
40123;DHT22;25832;45.490;4.912;2023-11-19T01:12:57;6.80;99.90
40123;DHT22;25832;45.490;4.912;2023-11-19T01:15:23;6.80;99.90
40123;DHT22;25832;45.490;4.912;2023-11-19T01:17:49;6.80;99.90
40123;DHT22;25832;45.490;4.912;2023-11-19T01:20:14;6.80;99.90
40123;DHT22;25832;45.490;4.912;2023-11-19T01:22:40;6.80;99.90
40123;DHT22;25832;45.490;4.912;2023-11-19T01:25:06;6.70;99.90
40123;DHT22;25832;45.490;4.912;2023-11-19T01:27:33;6.70;99.90
40123;DHT22;25832;45.490;4.912;2023-11-19T01:30:02;6.60;99.90
40123;DHT22;25832;45.490;4.912;2023-11-19T01:32:31;6.60;99.90
40123;DHT22;25832;45.490;4.912;2023-11-19T01:34:57;6.70;99.90
40123;DHT22;25832;45.490;4.912;2023-11-19T01:37:23;6.70;99.90
40123;DHT22;25832;45.490;4.912;2023-11-19T01:39:49;6.70;99.90
40123;DHT22;25832;45.490;4.912;2023-11-19T01:42:14;6.60;99.90
40123;DHT22;25832;45.490;4.912;2023-11-19T01:44:41;6.70;99.90
40123;DHT22;25832;45.490;4.912;2023-11-19T01:47:07;6.80;99.90
40123;DHT22;25832;45.490;4.912;2023-11-19T01:49:34;6.80;99.90
40123;DHT22;25832;45.490;4.912;2023-11-19T01:52:00;6.80;99.90
40123;DHT22;25832;45.490;4.912;2023-11-19T01:54:26;6.80;99.90
40123;DHT22;25832;45.490;4.912;2023-11-19T01:56:54;6.80;99.90
40123;DHT22;25832;45.490;4.912;2023-11-19T01:59:23;6.80;99.90
40123;DHT22;25832;45.490;4.912;2023-11-19T02:01:53;6.80;99.90
40123;DHT22;25832;45.490;4.912;2023-11-19T02:04:19;6.90;99.90
40123;DHT22;25832;45.490;4.912;2023-11-19T02:06:48;6.90;99.90
40123;DHT22;25832;45.490;4.912;2023-11-19T02:09:18;6.90;99.90
40123;DHT22;25832;45.490;4.912;2023-11-19T02:11:45;6.90;99.90
40123;DHT22;25832;45.490;4.912;2023-11-19T02:14:15;6.90;99.90
40123;DHT22;25832;45.490;4.912;2023-11-19T02:16:41;6.90;99.90
40123;DHT22;25832;45.490;4.912;2023-11-19T02:19:06;6.90;99.90
40123;DHT22;25832;45.490;4.912;2023-11-19T02:21:33;7.00;99.90
40123;DHT22;25832;45.490;4.912;2023-11-19T02:23:59;7.00;99.90
40123;DHT22;25832;45.490;4.912;2023-11-19T02:26:33;7.00;99.90
40123;DHT22;25832;45.490;4.912;2023-11-19T02:29:01;7.10;99.90
40123;DHT22;25832;45.490;4.912;2023-11-19T02:31:28;7.30;99.90
40123;DHT22;25832;45.490;4.912;2023-11-19T02:33:53;7.40;99.90
40123;DHT22;25832;45.490;4.912;2023-11-19T02:36:20;7.40;99.90
40123;DHT22;25832;45.490;4.912;2023-11-19T02:38:47;7.50;99.90
40123;DHT22;25832;45.490;4.912;2023-11-19T02:41:14;7.60;99.90
40123;DHT22;25832;45.490;4.912;2023-11-19T02:43:39;7.60;99.90
40123;DHT22;25832;45.490;4.912;2023-11-19T02:46:05;7.60;99.90
40123;DHT22;25832;45.490;4.912;2023-11-19T02:48:35;7.60;99.90
40123;DHT22;25832;45.490;4.912;2023-11-19T02:51:01;7.70;99.90
40123;DHT22;25832;45.490;4.912;2023-11-19T02:53:29;7.70;99.90
40123;DHT22;25832;45.490;4.912;2023-11-19T02:55:54;7.90;99.90
40123;DHT22;25832;45.490;4.912;2023-11-19T02:58:27;7.90;99.90
40123;DHT22;25832;45.490;4.912;2023-11-19T03:00:54;7.80;99.90
40123;DHT22;25832;45.490;4.912;2023-11-19T03:03:25;7.80;99.90
40123;DHT22;25832;45.490;4.912;2023-11-19T03:05:54;7.80;99.90
40123;DHT22;25832;45.490;4.912;2023-11-19T03:08:20;7.70;99.90
40123;DHT22;25832;45.490;4.912;2023-11-19T03:10:46;7.80;99.90
40123;DHT22;25832;45.490;4.912;2023-11-19T03:13:13;7.70;99.90
40123;DHT22;25832;45.490;4.912;2023-11-19T03:15:42;7.70;99.90
40123;DHT22;25832;45.490;4.912;2023-11-19T03:18:08;7.60;99.90
40123;DHT22;25832;45.490;4.912;2023-11-19T03:20:33;7.60;99.90
40123;DHT22;25832;45.490;4.912;2023-11-19T03:22:59;7.60;99.90
40123;DHT22;25832;45.490;4.912;2023-11-19T03:25:27;7.50;99.90
40123;DHT22;25832;45.490;4.912;2023-11-19T03:27:58;7.50;99.90
40123;DHT22;25832;45.490;4.912;2023-11-19T03:30:24;7.50;99.90
40123;DHT22;25832;45.490;4.912;2023-11-19T03:32:50;7.50;99.90
40123;DHT22;25832;45.490;4.912;2023-11-19T03:35:16;7.40;99.90
40123;DHT22;25832;45.490;4.912;2023-11-19T03:37:42;7.40;99.90
40123;DHT22;25832;45.490;4.912;2023-11-19T03:40:09;7.50;99.90
40123;DHT22;25832;45.490;4.912;2023-11-19T03:42:35;7.40;99.90
40123;DHT22;25832;45.490;4.912;2023-11-19T03:45:01;7.30;99.90
40123;DHT22;25832;45.490;4.912;2023-11-19T03:47:26;7.30;99.90
40123;DHT22;25832;45.490;4.912;2023-11-19T03:49:52;7.20;99.90
40123;DHT22;25832;45.490;4.912;2023-11-19T03:52:18;7.30;99.90
40123;DHT22;25832;45.490;4.912;2023-11-19T03:54:44;7.30;99.90
40123;DHT22;25832;45.490;4.912;2023-11-19T03:57:11;7.20;99.90
40123;DHT22;25832;45.490;4.912;2023-11-19T03:59:37;7.20;99.90
40123;DHT22;25832;45.490;4.912;2023-11-19T04:02:03;7.10;99.90
40123;DHT22;25832;45.490;4.912;2023-11-19T04:04:29;7.10;99.90
40123;DHT22;25832;45.490;4.912;2023-11-19T04:06:55;7.20;99.90
40123;DHT22;25832;45.490;4.912;2023-11-19T04:09:21;7.20;99.90
40123;DHT22;25832;45.490;4.912;2023-11-19T04:11:47;7.20;99.90
40123;DHT22;25832;45.490;4.912;2023-11-19T04:14:13;7.10;99.90
40123;DHT22;25832;45.490;4.912;2023-11-19T04:16:40;7.20;99.90
40123;DHT22;25832;45.490;4.912;2023-11-19T04:19:05;7.20;99.90
40123;DHT22;25832;45.490;4.912;2023-11-19T04:21:32;7.20;99.90
40123;DHT22;25832;45.490;4.912;2023-11-19T04:23:58;7.10;99.90
40123;DHT22;25832;45.490;4.912;2023-11-19T04:26:23;6.90;99.90
40123;DHT22;25832;45.490;4.912;2023-11-19T04:28:49;6.90;99.90
40123;DHT22;25832;45.490;4.912;2023-11-19T04:31:17;6.80;99.90
40123;DHT22;25832;45.490;4.912;2023-11-19T04:33:43;6.80;99.90
40123;DHT22;25832;45.490;4.912;2023-11-19T04:36:09;6.70;99.90
40123;DHT22;25832;45.490;4.912;2023-11-19T04:38:35;6.80;99.90
40123;DHT22;25832;45.490;4.912;2023-11-19T04:41:01;6.80;99.90
40123;DHT22;25832;45.490;4.912;2023-11-19T04:43:27;6.80;99.90
40123;DHT22;25832;45.490;4.912;2023-11-19T04:45:52;6.90;99.90
40123;DHT22;25832;45.490;4.912;2023-11-19T04:48:19;7.00;99.90
40123;DHT22;25832;45.490;4.912;2023-11-19T04:50:44;7.00;99.90
40123;DHT22;25832;45.490;4.912;2023-11-19T04:53:10;7.00;99.90
40123;DHT22;25832;45.490;4.912;2023-11-19T04:55:35;7.00;99.90
40123;DHT22;25832;45.490;4.912;2023-11-19T04:58:01;6.90;99.90
40123;DHT22;25832;45.490;4.912;2023-11-19T05:00:26;6.80;99.90
40123;DHT22;25832;45.490;4.912;2023-11-19T05:02:52;6.80;99.90
40123;DHT22;25832;45.490;4.912;2023-11-19T05:05:18;6.70;99.90
40123;DHT22;25832;45.490;4.912;2023-11-19T05:07:44;6.80;99.90
40123;DHT22;25832;45.490;4.912;2023-11-19T05:10:09;6.80;99.90
40123;DHT22;25832;45.490;4.912;2023-11-19T05:12:35;6.80;99.90
40123;DHT22;25832;45.490;4.912;2023-11-19T05:15:00;6.70;99.90
40123;DHT22;25832;45.490;4.912;2023-11-19T05:17:26;6.70;99.90
40123;DHT22;25832;45.490;4.912;2023-11-19T05:19:52;6.70;99.90
40123;DHT22;25832;45.490;4.912;2023-11-19T05:22:18;6.60;99.90
40123;DHT22;25832;45.490;4.912;2023-11-19T05:24:43;6.60;99.90
40123;DHT22;25832;45.490;4.912;2023-11-19T05:27:09;6.60;99.90
40123;DHT22;25832;45.490;4.912;2023-11-19T05:29:37;6.60;99.90
40123;DHT22;25832;45.490;4.912;2023-11-19T05:32:05;6.60;99.90
40123;DHT22;25832;45.490;4.912;2023-11-19T05:34:30;6.50;99.90
40123;DHT22;25832;45.490;4.912;2023-11-19T05:36:56;6.50;99.90
40123;DHT22;25832;45.490;4.912;2023-11-19T05:39:22;6.40;99.90
40123;DHT22;25832;45.490;4.912;2023-11-19T05:41:48;6.30;99.90
40123;DHT22;25832;45.490;4.912;2023-11-19T05:44:14;6.20;99.90
40123;DHT22;25832;45.490;4.912;2023-11-19T05:46:39;6.10;99.90
40123;DHT22;25832;45.490;4.912;2023-11-19T05:49:08;6.10;99.90
40123;DHT22;25832;45.490;4.912;2023-11-19T05:51:37;6.10;99.90
40123;DHT22;25832;45.490;4.912;2023-11-19T05:54:04;6.10;99.90
40123;DHT22;25832;45.490;4.912;2023-11-19T05:56:32;6.10;99.90
40123;DHT22;25832;45.490;4.912;2023-11-19T05:58:58;6.10;99.90
40123;DHT22;25832;45.490;4.912;2023-11-19T06:01:26;6.20;99.90
40123;DHT22;25832;45.490;4.912;2023-11-19T06:03:53;6.40;99.90
40123;DHT22;25832;45.490;4.912;2023-11-19T06:06:19;6.60;99.90
40123;DHT22;25832;45.490;4.912;2023-11-19T06:08:44;6.70;99.90
40123;DHT22;25832;45.490;4.912;2023-11-19T06:11:10;6.70;99.90
40123;DHT22;25832;45.490;4.912;2023-11-19T06:13:44;6.60;99.90
40123;DHT22;25832;45.490;4.912;2023-11-19T06:16:09;6.50;99.90
40123;DHT22;25832;45.490;4.912;2023-11-19T06:18:36;6.50;99.90
40123;DHT22;25832;45.490;4.912;2023-11-19T06:21:02;6.40;99.90
40123;DHT22;25832;45.490;4.912;2023-11-19T06:23:28;6.30;99.90
40123;DHT22;25832;45.490;4.912;2023-11-19T06:25:54;6.20;99.90
40123;DHT22;25832;45.490;4.912;2023-11-19T06:28:19;6.20;99.90
40123;DHT22;25832;45.490;4.912;2023-11-19T06:30:45;6.10;99.90
40123;DHT22;25832;45.490;4.912;2023-11-19T06:33:14;6.10;99.90
40123;DHT22;25832;45.490;4.912;2023-11-19T06:35:40;6.10;99.90
40123;DHT22;25832;45.490;4.912;2023-11-19T06:38:05;6.10;99.90
40123;DHT22;25832;45.490;4.912;2023-11-19T06:40:32;6.00;99.90
40123;DHT22;25832;45.490;4.912;2023-11-19T06:42:57;5.90;99.90
40123;DHT22;25832;45.490;4.912;2023-11-19T06:45:23;5.90;99.90
40123;DHT22;25832;45.490;4.912;2023-11-19T06:47:49;5.90;99.90
40123;DHT22;25832;45.490;4.912;2023-11-19T06:50:15;6.10;99.90
40123;DHT22;25832;45.490;4.912;2023-11-19T06:52:41;6.20;99.90
40123;DHT22;25832;45.490;4.912;2023-11-19T06:55:07;6.20;99.90
40123;DHT22;25832;45.490;4.912;2023-11-19T06:57:33;6.30;99.90
40123;DHT22;25832;45.490;4.912;2023-11-19T06:59:59;6.40;99.90
40123;DHT22;25832;45.490;4.912;2023-11-19T07:02:25;6.40;99.90
40123;DHT22;25832;45.490;4.912;2023-11-19T07:04:51;6.40;99.90
40123;DHT22;25832;45.490;4.912;2023-11-19T07:07:17;6.40;99.90
40123;DHT22;25832;45.490;4.912;2023-11-19T07:09:42;6.50;99.90
40123;DHT22;25832;45.490;4.912;2023-11-19T07:12:08;6.70;99.90
40123;DHT22;25832;45.490;4.912;2023-11-19T07:14:34;6.90;99.90
40123;DHT22;25832;45.490;4.912;2023-11-19T07:17:00;7.00;99.90
40123;DHT22;25832;45.490;4.912;2023-11-19T07:19:26;7.10;99.90
40123;DHT22;25832;45.490;4.912;2023-11-19T07:21:51;7.20;99.90
40123;DHT22;25832;45.490;4.912;2023-11-19T07:24:20;7.20;99.90
40123;DHT22;25832;45.490;4.912;2023-11-19T07:26:47;7.30;99.90
40123;DHT22;25832;45.490;4.912;2023-11-19T07:29:13;7.40;99.90
40123;DHT22;25832;45.490;4.912;2023-11-19T07:31:40;7.50;99.90
40123;DHT22;25832;45.490;4.912;2023-11-19T07:34:06;7.70;99.90
40123;DHT22;25832;45.490;4.912;2023-11-19T07:36:32;7.90;99.90
40123;DHT22;25832;45.490;4.912;2023-11-19T07:38:58;8.00;99.90
40123;DHT22;25832;45.490;4.912;2023-11-19T07:41:24;8.10;99.90
40123;DHT22;25832;45.490;4.912;2023-11-19T07:43:51;8.20;99.90
40123;DHT22;25832;45.490;4.912;2023-11-19T07:46:17;8.30;99.90
40123;DHT22;25832;45.490;4.912;2023-11-19T07:48:45;8.30;99.90
40123;DHT22;25832;45.490;4.912;2023-11-19T07:51:13;8.30;99.90
40123;DHT22;25832;45.490;4.912;2023-11-19T07:53:39;8.20;99.90
40123;DHT22;25832;45.490;4.912;2023-11-19T07:56:06;8.20;99.90
40123;DHT22;25832;45.490;4.912;2023-11-19T07:58:32;8.20;99.90
40123;DHT22;25832;45.490;4.912;2023-11-19T08:00:58;8.20;99.90
40123;DHT22;25832;45.490;4.912;2023-11-19T08:03:23;8.20;99.90
40123;DHT22;25832;45.490;4.912;2023-11-19T08:05:49;8.30;99.90
40123;DHT22;25832;45.490;4.912;2023-11-19T08:08:15;8.40;99.90
40123;DHT22;25832;45.490;4.912;2023-11-19T08:10:41;8.50;99.90
40123;DHT22;25832;45.490;4.912;2023-11-19T08:13:07;8.50;99.90
40123;DHT22;25832;45.490;4.912;2023-11-19T08:15:35;8.70;99.90
40123;DHT22;25832;45.490;4.912;2023-11-19T08:18:00;8.80;99.90
40123;DHT22;25832;45.490;4.912;2023-11-19T08:20:26;9.10;99.90
40123;DHT22;25832;45.490;4.912;2023-11-19T08:22:51;9.20;99.90
40123;DHT22;25832;45.490;4.912;2023-11-19T08:25:17;9.30;99.90
40123;DHT22;25832;45.490;4.912;2023-11-19T08:27:43;9.40;99.90
40123;DHT22;25832;45.490;4.912;2023-11-19T08:30:09;9.50;99.90
40123;DHT22;25832;45.490;4.912;2023-11-19T08:32:35;9.70;99.90
40123;DHT22;25832;45.490;4.912;2023-11-19T08:35:01;9.90;99.90
40123;DHT22;25832;45.490;4.912;2023-11-19T08:37:26;10.10;99.90
40123;DHT22;25832;45.490;4.912;2023-11-19T08:39:52;10.20;99.90
40123;DHT22;25832;45.490;4.912;2023-11-19T08:42:18;10.40;99.90
40123;DHT22;25832;45.490;4.912;2023-11-19T08:44:43;10.50;99.90
40123;DHT22;25832;45.490;4.912;2023-11-19T08:47:16;10.50;99.90
40123;DHT22;25832;45.490;4.912;2023-11-19T08:49:43;10.50;99.90
40123;DHT22;25832;45.490;4.912;2023-11-19T08:52:09;10.50;99.90
40123;DHT22;25832;45.490;4.912;2023-11-19T08:54:42;10.50;99.90
40123;DHT22;25832;45.490;4.912;2023-11-19T08:57:07;10.50;99.90
40123;DHT22;25832;45.490;4.912;2023-11-19T08:59:34;10.60;99.90
40123;DHT22;25832;45.490;4.912;2023-11-19T09:02:00;10.70;99.90
40123;DHT22;25832;45.490;4.912;2023-11-19T09:04:25;10.70;99.90
40123;DHT22;25832;45.490;4.912;2023-11-19T09:06:51;10.80;99.90
40123;DHT22;25832;45.490;4.912;2023-11-19T09:09:17;10.80;99.90
40123;DHT22;25832;45.490;4.912;2023-11-19T09:11:42;10.90;99.90
40123;DHT22;25832;45.490;4.912;2023-11-19T09:14:08;11.00;99.90
40123;DHT22;25832;45.490;4.912;2023-11-19T09:16:34;11.00;99.90
40123;DHT22;25832;45.490;4.912;2023-11-19T09:19:00;11.10;99.90
40123;DHT22;25832;45.490;4.912;2023-11-19T09:21:26;11.20;99.90
40123;DHT22;25832;45.490;4.912;2023-11-19T09:23:52;11.20;99.90
40123;DHT22;25832;45.490;4.912;2023-11-19T09:26:19;11.30;99.90
40123;DHT22;25832;45.490;4.912;2023-11-19T09:28:45;11.30;99.90
40123;DHT22;25832;45.490;4.912;2023-11-19T09:31:17;11.30;99.90
40123;DHT22;25832;45.490;4.912;2023-11-19T09:33:44;11.30;99.90
40123;DHT22;25832;45.490;4.912;2023-11-19T09:36:12;11.30;99.90
40123;DHT22;25832;45.490;4.912;2023-11-19T09:38:39;11.40;99.90
40123;DHT22;25832;45.490;4.912;2023-11-19T09:41:05;11.50;99.90
40123;DHT22;25832;45.490;4.912;2023-11-19T09:43:34;11.60;99.90
40123;DHT22;25832;45.490;4.912;2023-11-19T09:46:04;11.80;99.90
40123;DHT22;25832;45.490;4.912;2023-11-19T09:48:33;11.80;99.90
40123;DHT22;25832;45.490;4.912;2023-11-19T09:50:59;11.90;99.90
40123;DHT22;25832;45.490;4.912;2023-11-19T09:53:25;11.90;99.90
40123;DHT22;25832;45.490;4.912;2023-11-19T09:55:52;11.90;99.90
40123;DHT22;25832;45.490;4.912;2023-11-19T09:58:18;12.00;99.90
40123;DHT22;25832;45.490;4.912;2023-11-19T10:00:44;12.00;99.90
40123;DHT22;25832;45.490;4.912;2023-11-19T10:03:11;12.00;99.90
40123;DHT22;25832;45.490;4.912;2023-11-19T10:05:40;12.00;99.90
40123;DHT22;25832;45.490;4.912;2023-11-19T10:08:07;12.10;99.90
40123;DHT22;25832;45.490;4.912;2023-11-19T10:10:33;12.30;99.90
40123;DHT22;25832;45.490;4.912;2023-11-19T10:12:59;12.40;99.90
40123;DHT22;25832;45.490;4.912;2023-11-19T10:15:26;12.50;99.90
40123;DHT22;25832;45.490;4.912;2023-11-19T10:17:58;12.70;99.90
40123;DHT22;25832;45.490;4.912;2023-11-19T10:20:24;12.80;99.90
40123;DHT22;25832;45.490;4.912;2023-11-19T10:22:56;12.90;99.90
40123;DHT22;25832;45.490;4.912;2023-11-19T10:25:26;13.10;99.90
40123;DHT22;25832;45.490;4.912;2023-11-19T10:27:52;13.20;99.90
40123;DHT22;25832;45.490;4.912;2023-11-19T10:30:24;13.30;99.90
40123;DHT22;25832;45.490;4.912;2023-11-19T10:33:09;13.40;99.90
40123;DHT22;25832;45.490;4.912;2023-11-19T10:35:55;13.60;99.90
40123;DHT22;25832;45.490;4.912;2023-11-19T10:38:25;13.80;99.90
40123;DHT22;25832;45.490;4.912;2023-11-19T10:40:52;13.90;99.90
40123;DHT22;25832;45.490;4.912;2023-11-19T10:43:21;14.00;99.90
40123;DHT22;25832;45.490;4.912;2023-11-19T10:45:50;14.10;99.90
40123;DHT22;25832;45.490;4.912;2023-11-19T10:48:16;14.10;99.90
40123;DHT22;25832;45.490;4.912;2023-11-19T10:50:44;14.20;99.90
40123;DHT22;25832;45.490;4.912;2023-11-19T10:53:11;14.20;99.90
40123;DHT22;25832;45.490;4.912;2023-11-19T10:55:40;14.30;99.90
40123;DHT22;25832;45.490;4.912;2023-11-19T10:58:06;14.30;99.90
40123;DHT22;25832;45.490;4.912;2023-11-19T11:00:39;14.40;99.90
40123;DHT22;25832;45.490;4.912;2023-11-19T11:03:21;14.40;99.90
40123;DHT22;25832;45.490;4.912;2023-11-19T11:05:51;14.50;99.90
40123;DHT22;25832;45.490;4.912;2023-11-19T11:08:18;14.60;99.90
40123;DHT22;25832;45.490;4.912;2023-11-19T11:10:57;14.70;99.90
40123;DHT22;25832;45.490;4.912;2023-11-19T11:13:26;14.90;99.90
40123;DHT22;25832;45.490;4.912;2023-11-19T11:15:55;15.00;99.90
40123;DHT22;25832;45.490;4.912;2023-11-19T11:18:24;15.10;99.90
40123;DHT22;25832;45.490;4.912;2023-11-19T11:21:14;15.10;99.90
40123;DHT22;25832;45.490;4.912;2023-11-19T11:29:16;15.20;99.90
40123;DHT22;25832;45.490;4.912;2023-11-19T11:32:29;15.20;99.90
40123;DHT22;25832;45.490;4.912;2023-11-19T11:35:24;15.10;99.90
40123;DHT22;25832;45.490;4.912;2023-11-19T11:37:33;15.10;99.90
40123;DHT22;25832;45.490;4.912;2023-11-19T11:40:02;15.10;99.90
40123;DHT22;25832;45.490;4.912;2023-11-19T11:42:35;15.00;99.90
40123;DHT22;25832;45.490;4.912;2023-11-19T11:45:08;14.90;99.90
40123;DHT22;25832;45.490;4.912;2023-11-19T11:50:17;14.80;99.90
40123;DHT22;25832;45.490;4.912;2023-11-19T11:55:28;14.60;99.90
40123;DHT22;25832;45.490;4.912;2023-11-19T11:57:59;14.40;99.90
40123;DHT22;25832;45.490;4.912;2023-11-19T12:00:30;14.20;99.90
40123;DHT22;25832;45.490;4.912;2023-11-19T12:02:56;14.10;99.90
40123;DHT22;25832;45.490;4.912;2023-11-19T12:05:23;14.10;99.90
40123;DHT22;25832;45.490;4.912;2023-11-19T12:08:03;14.00;99.90
40123;DHT22;25832;45.490;4.912;2023-11-19T12:10:30;14.00;99.90
40123;DHT22;25832;45.490;4.912;2023-11-19T12:13:01;14.10;99.90
40123;DHT22;25832;45.490;4.912;2023-11-19T12:15:27;14.10;99.90
40123;DHT22;25832;45.490;4.912;2023-11-19T12:17:53;14.10;99.90
40123;DHT22;25832;45.490;4.912;2023-11-19T12:20:24;14.20;99.90
40123;DHT22;25832;45.490;4.912;2023-11-19T12:22:50;14.30;99.90
40123;DHT22;25832;45.490;4.912;2023-11-19T12:25:16;14.30;99.90
40123;DHT22;25832;45.490;4.912;2023-11-19T12:27:45;14.30;99.90
40123;DHT22;25832;45.490;4.912;2023-11-19T12:30:11;14.30;99.90
40123;DHT22;25832;45.490;4.912;2023-11-19T12:32:41;14.30;99.90
40123;DHT22;25832;45.490;4.912;2023-11-19T12:35:08;14.30;99.90
40123;DHT22;25832;45.490;4.912;2023-11-19T12:37:47;14.20;99.90
40123;DHT22;25832;45.490;4.912;2023-11-19T12:40:21;14.40;99.90
40123;DHT22;25832;45.490;4.912;2023-11-19T12:42:51;14.40;99.90
40123;DHT22;25832;45.490;4.912;2023-11-19T12:45:18;14.40;99.90
40123;DHT22;25832;45.490;4.912;2023-11-19T12:47:45;14.50;99.90
40123;DHT22;25832;45.490;4.912;2023-11-19T12:50:16;14.50;99.90
40123;DHT22;25832;45.490;4.912;2023-11-19T12:52:55;14.50;99.90
40123;DHT22;25832;45.490;4.912;2023-11-19T12:55:28;14.50;99.90
40123;DHT22;25832;45.490;4.912;2023-11-19T12:57:54;14.50;99.90
40123;DHT22;25832;45.490;4.912;2023-11-19T13:00:25;14.60;99.90
40123;DHT22;25832;45.490;4.912;2023-11-19T13:02:55;14.70;99.90
40123;DHT22;25832;45.490;4.912;2023-11-19T13:07:57;15.00;99.90
40123;DHT22;25832;45.490;4.912;2023-11-19T13:10:23;15.20;99.90
40123;DHT22;25832;45.490;4.912;2023-11-19T13:13:06;15.30;99.90
40123;DHT22;25832;45.490;4.912;2023-11-19T13:15:32;15.50;99.90
40123;DHT22;25832;45.490;4.912;2023-11-19T13:17:59;15.60;99.90
40123;DHT22;25832;45.490;4.912;2023-11-19T13:20:25;15.70;99.90
40123;DHT22;25832;45.490;4.912;2023-11-19T13:23:02;15.80;99.90
40123;DHT22;25832;45.490;4.912;2023-11-19T13:25:28;15.90;99.90
40123;DHT22;25832;45.490;4.912;2023-11-19T13:27:54;16.00;99.90
40123;DHT22;25832;45.490;4.912;2023-11-19T13:30:21;16.00;99.90
40123;DHT22;25832;45.490;4.912;2023-11-19T13:32:48;16.00;99.90
40123;DHT22;25832;45.490;4.912;2023-11-19T13:35:13;16.00;99.90
40123;DHT22;25832;45.490;4.912;2023-11-19T13:37:39;15.90;99.90
40123;DHT22;25832;45.490;4.912;2023-11-19T13:40:07;15.90;99.90
40123;DHT22;25832;45.490;4.912;2023-11-19T13:42:32;15.80;99.90
40123;DHT22;25832;45.490;4.912;2023-11-19T13:44:58;15.80;99.90
40123;DHT22;25832;45.490;4.912;2023-11-19T13:47:24;15.80;99.90
40123;DHT22;25832;45.490;4.912;2023-11-19T13:49:50;15.70;99.90
40123;DHT22;25832;45.490;4.912;2023-11-19T13:52:15;15.70;99.90
40123;DHT22;25832;45.490;4.912;2023-11-19T13:54:41;15.70;99.90
40123;DHT22;25832;45.490;4.912;2023-11-19T13:57:07;15.70;99.90
40123;DHT22;25832;45.490;4.912;2023-11-19T13:59:32;15.60;99.90
40123;DHT22;25832;45.490;4.912;2023-11-19T14:01:58;15.60;99.90
40123;DHT22;25832;45.490;4.912;2023-11-19T14:04:24;15.70;99.90
40123;DHT22;25832;45.490;4.912;2023-11-19T14:06:50;15.60;99.90
40123;DHT22;25832;45.490;4.912;2023-11-19T14:09:16;15.60;99.90
40123;DHT22;25832;45.490;4.912;2023-11-19T14:11:43;15.60;99.90
40123;DHT22;25832;45.490;4.912;2023-11-19T14:14:08;15.60;99.90
40123;DHT22;25832;45.490;4.912;2023-11-19T14:16:34;15.60;99.90
40123;DHT22;25832;45.490;4.912;2023-11-19T14:19:00;15.60;99.90
40123;DHT22;25832;45.490;4.912;2023-11-19T14:21:26;15.60;99.90
40123;DHT22;25832;45.490;4.912;2023-11-19T14:23:52;15.50;99.90
40123;DHT22;25832;45.490;4.912;2023-11-19T14:26:18;15.50;99.90
40123;DHT22;25832;45.490;4.912;2023-11-19T14:28:44;15.50;99.90
40123;DHT22;25832;45.490;4.912;2023-11-19T14:31:09;15.50;99.90
40123;DHT22;25832;45.490;4.912;2023-11-19T14:33:35;15.50;99.90
40123;DHT22;25832;45.490;4.912;2023-11-19T14:36:01;15.40;99.90
40123;DHT22;25832;45.490;4.912;2023-11-19T14:38:27;15.30;99.90
40123;DHT22;25832;45.490;4.912;2023-11-19T14:40:53;15.30;99.90
40123;DHT22;25832;45.490;4.912;2023-11-19T14:43:18;15.20;99.90
40123;DHT22;25832;45.490;4.912;2023-11-19T14:45:44;15.20;99.90
40123;DHT22;25832;45.490;4.912;2023-11-19T14:48:09;15.20;99.90
40123;DHT22;25832;45.490;4.912;2023-11-19T14:50:35;15.10;99.90
40123;DHT22;25832;45.490;4.912;2023-11-19T14:53:01;15.00;99.90
40123;DHT22;25832;45.490;4.912;2023-11-19T14:55:27;14.90;99.90
40123;DHT22;25832;45.490;4.912;2023-11-19T14:57:53;14.80;99.90
40123;DHT22;25832;45.490;4.912;2023-11-19T15:00:19;14.70;99.90
40123;DHT22;25832;45.490;4.912;2023-11-19T15:02:45;14.60;99.90
40123;DHT22;25832;45.490;4.912;2023-11-19T15:05:10;14.50;99.90
40123;DHT22;25832;45.490;4.912;2023-11-19T15:07:39;14.50;99.90
40123;DHT22;25832;45.490;4.912;2023-11-19T15:10:08;14.40;99.90
40123;DHT22;25832;45.490;4.912;2023-11-19T15:12:35;14.30;99.90
40123;DHT22;25832;45.490;4.912;2023-11-19T15:15:08;14.20;99.90
40123;DHT22;25832;45.490;4.912;2023-11-19T15:17:40;14.10;99.90
40123;DHT22;25832;45.490;4.912;2023-11-19T15:20:06;13.90;99.90
40123;DHT22;25832;45.490;4.912;2023-11-19T15:22:32;13.80;99.90
40123;DHT22;25832;45.490;4.912;2023-11-19T15:24:58;13.80;99.90
40123;DHT22;25832;45.490;4.912;2023-11-19T15:27:24;13.80;99.90
40123;DHT22;25832;45.490;4.912;2023-11-19T15:29:49;13.80;99.90
40123;DHT22;25832;45.490;4.912;2023-11-19T15:32:15;13.80;99.90
40123;DHT22;25832;45.490;4.912;2023-11-19T15:34:40;13.80;99.90
40123;DHT22;25832;45.490;4.912;2023-11-19T15:37:07;13.80;99.90
40123;DHT22;25832;45.490;4.912;2023-11-19T15:39:33;13.80;99.90
40123;DHT22;25832;45.490;4.912;2023-11-19T15:42:01;13.80;99.90
40123;DHT22;25832;45.490;4.912;2023-11-19T15:44:27;13.80;99.90
40123;DHT22;25832;45.490;4.912;2023-11-19T15:46:54;13.80;99.90
40123;DHT22;25832;45.490;4.912;2023-11-19T15:49:20;13.70;99.90
40123;DHT22;25832;45.490;4.912;2023-11-19T15:51:46;13.70;99.90
40123;DHT22;25832;45.490;4.912;2023-11-19T15:54:11;13.70;99.90